createdAt,value
2019-04-14T00:03:22.061Z,120.03
2019-04-14T00:08:41.567Z,122.13
2019-04-14T00:14:00.944Z,125.30
2019-04-14T00:19:19.645Z,125.30
2019-04-14T00:24:38.364Z,109.50
2019-04-14T00:29:56.912Z,111.90
2019-04-14T00:35:29.900Z,107.92
2019-04-14T00:41:07.844Z,105.33
2019-04-14T00:46:30.868Z,94.93
2019-04-14T00:51:48.647Z,101.60
2019-04-14T00:57:07.362Z,111.97
2019-04-14T01:02:26.003Z,104.03
2019-04-14T01:07:45.568Z,108.03
2019-04-14T01:13:06.717Z,109.10
2019-04-14T01:18:25.433Z,99.13
2019-04-14T01:23:44.124Z,118.93
2019-04-14T01:29:03.671Z,100.72
2019-04-14T01:34:22.241Z,107.27
2019-04-14T01:39:41.476Z,112.40
2019-04-14T01:45:00.016Z,108.10
2019-04-14T01:50:21.281Z,114.47
2019-04-14T01:55:41.675Z,102.43
2019-04-14T02:01:04.289Z,119.73
2019-04-14T02:06:24.430Z,128.90
2019-04-14T02:11:44.437Z,127.97
2019-04-14T02:17:04.400Z,134.63
2019-04-14T02:22:24.443Z,118.90
2019-04-14T02:27:43.113Z,105.27
2019-04-14T02:33:33.784Z,98.52
2019-04-14T02:38:57.217Z,110.13
2019-04-14T02:44:12.464Z,109.13
2019-04-14T02:49:34.894Z,110.10
2019-04-14T03:00:07.794Z,95.30
2019-04-14T03:05:26.895Z,118.07
2019-04-14T03:10:48.006Z,128.53
2019-04-14T03:16:17.430Z,104.63
2019-04-14T03:27:04.876Z,92.80
2019-04-14T03:32:42.635Z,99.43
2019-04-14T03:38:17.097Z,90.37
2019-04-14T03:43:19.698Z,87.10
2019-04-14T03:48:42.787Z,98.80
2019-04-14T03:53:41.282Z,87.67
2019-04-14T03:58:37.913Z,93.47
2019-04-14T04:03:56.477Z,95.43
2019-04-14T04:09:15.146Z,110.40
2019-04-14T04:14:34.105Z,119.47
2019-04-14T04:20:00.008Z,106.07
2019-04-14T04:25:23.302Z,94.92
2019-04-14T04:30:53.698Z,99.60
2019-04-14T04:36:27.024Z,84.90
2019-04-14T04:41:45.589Z,103.70
2019-04-14T04:47:05.710Z,96.70
2019-04-14T04:52:24.309Z,98.10
2019-04-14T04:57:43.826Z,96.67
2019-04-14T05:03:03.582Z,94.87
2019-04-14T05:08:22.632Z,83.60
2019-04-14T05:13:42.487Z,90.80
2019-04-14T05:19:14.076Z,101.13
2019-04-14T05:24:23.009Z,96.00
2019-04-14T05:29:42.938Z,89.87
2019-04-14T05:35:03.043Z,86.93
2019-04-14T05:40:23.508Z,87.47
2019-04-14T05:45:42.259Z,81.33
2019-04-14T05:51:06.649Z,74.80
2019-04-14T05:56:25.295Z,78.20
2019-04-14T06:01:44.319Z,74.53
2019-04-14T06:07:03.605Z,82.60
2019-04-14T06:12:22.077Z,69.50
2019-04-14T06:17:40.754Z,78.15
2019-04-14T06:22:59.887Z,70.50
2019-04-14T06:28:18.359Z,66.23
2019-04-14T06:33:38.645Z,76.23
2019-04-14T06:38:58.893Z,70.17
2019-04-14T06:44:17.755Z,48.80
2019-04-14T06:49:48.220Z,67.03
2019-04-14T06:54:57.101Z,62.50
2019-04-14T07:00:15.768Z,62.80
2019-04-14T07:05:34.338Z,62.00
2019-04-14T07:10:53.038Z,68.43
2019-04-14T07:16:11.677Z,67.33
2019-04-14T07:21:30.327Z,58.50
2019-04-14T07:26:48.910Z,63.27
2019-04-14T07:32:11.864Z,55.73
2019-04-14T07:37:32.157Z,49.73
2019-04-14T07:43:07.243Z,46.90
2019-04-14T07:48:30.312Z,46.10
2019-04-14T07:53:53.572Z,47.27
2019-04-14T07:59:22.739Z,41.90
2019-04-14T08:04:43.018Z,41.40
2019-04-14T08:10:01.647Z,43.77
2019-04-14T08:15:20.271Z,43.35
2019-04-14T08:20:39.674Z,42.00
2019-04-14T08:25:58.353Z,37.97
2019-04-14T08:31:16.970Z,35.87
2019-04-14T08:36:35.603Z,38.53
2019-04-14T08:42:11.734Z,38.70
2019-04-14T08:47:47.892Z,34.10
2019-04-14T08:53:13.841Z,29.13
2019-04-14T08:58:39.472Z,29.50
2019-04-14T09:03:59.749Z,31.30
2019-04-14T09:09:23.167Z,33.33
2019-04-14T09:14:41.702Z,31.17
2019-04-14T09:20:00.262Z,28.47
2019-04-14T09:25:18.839Z,29.18
2019-04-14T09:30:37.459Z,27.70
2019-04-14T09:35:56.018Z,24.90
2019-04-14T09:41:14.590Z,23.40
2019-04-14T09:46:33.513Z,29.33
2019-04-14T09:51:52.138Z,25.60
2019-04-14T09:57:10.699Z,22.65
2019-04-14T10:02:29.608Z,22.57
2019-04-14T10:07:48.173Z,21.77
2019-04-14T10:13:06.817Z,24.57
2019-04-14T10:18:25.389Z,22.83
2019-04-14T10:23:44.042Z,20.40
2019-04-14T10:29:02.888Z,22.10
2019-04-14T10:34:21.559Z,19.47
2019-04-14T10:39:40.132Z,22.07
2019-04-14T10:44:59.037Z,18.57
2019-04-14T10:50:29.855Z,16.05
2019-04-14T10:55:37.871Z,20.30
2019-04-14T11:00:58.019Z,18.00
2019-04-14T11:06:24.023Z,22.50
2019-04-14T11:11:44.054Z,20.73
2019-04-14T11:17:03.293Z,24.27
2019-04-14T11:22:21.916Z,21.50
2019-04-14T11:27:41.753Z,21.00
2019-04-14T11:33:10.846Z,20.00
2019-04-14T11:38:31.028Z,22.40
2019-04-14T11:43:49.600Z,20.53
2019-04-14T11:49:08.306Z,21.67
2019-04-14T11:54:26.961Z,17.77
2019-04-14T12:00:02.810Z,20.07
2019-04-14T12:05:39.139Z,19.70
2019-04-14T12:10:57.772Z,19.63
2019-04-14T12:16:16.440Z,14.47
2019-04-14T12:21:35.081Z,17.90
2019-04-14T12:26:53.633Z,18.13
2019-04-14T12:32:12.848Z,21.77
2019-04-14T12:37:31.425Z,20.67
2019-04-14T12:42:51.636Z,21.17
2019-04-14T12:48:21.983Z,18.93
2019-04-14T12:53:40.666Z,27.63
2019-04-14T12:59:01.139Z,25.30
2019-04-14T13:04:19.852Z,25.23
2019-04-14T13:09:38.425Z,23.13
2019-04-14T13:14:56.967Z,27.97
2019-04-14T13:20:15.688Z,23.25
2019-04-14T13:25:34.312Z,22.67
2019-04-14T13:30:53.553Z,21.67
2019-04-14T13:36:12.204Z,25.97
2019-04-14T13:41:30.693Z,22.80
2019-04-14T13:46:49.380Z,26.80
2019-04-14T13:52:08.004Z,27.53
2019-04-14T13:57:26.847Z,22.50
2019-04-14T14:02:45.468Z,23.77
2019-04-14T14:08:04.184Z,24.77
2019-04-14T14:13:36.117Z,27.05
2019-04-14T14:18:56.321Z,23.73
2019-04-14T14:24:28.772Z,24.10
2019-04-14T14:29:47.337Z,27.53
2019-04-14T14:35:06.964Z,21.97
2019-04-14T14:40:25.570Z,26.23
2019-04-14T14:45:48.407Z,23.20
2019-04-14T14:51:14.563Z,22.60
2019-04-14T14:56:34.641Z,20.07
2019-04-14T15:01:53.261Z,23.67
2019-04-14T15:07:11.857Z,22.73
2019-04-14T15:12:30.492Z,24.90
2019-04-14T15:17:49.119Z,30.37
2019-04-14T15:23:07.876Z,22.83
2019-04-14T15:28:26.486Z,26.50
2019-04-14T15:33:45.117Z,27.20
2019-04-14T15:39:06.277Z,21.93
2019-04-14T15:44:24.846Z,21.83
2019-04-14T15:49:43.549Z,27.40
2019-04-14T15:55:02.141Z,22.10
2019-04-14T16:00:25.492Z,21.27
2019-04-14T16:05:51.693Z,27.30
2019-04-14T16:11:21.032Z,22.43
2019-04-14T16:16:57.329Z,29.80
2019-04-14T16:22:16.259Z,27.43
2019-04-14T16:27:36.526Z,23.00
2019-04-14T16:38:46.715Z,21.50
2019-04-14T16:44:05.410Z,25.30
2019-04-14T16:49:23.978Z,20.97
2019-04-14T16:54:46.948Z,24.33
2019-04-14T17:00:08.458Z,24.87
2019-04-14T17:05:27.074Z,20.27
2019-04-14T17:10:45.651Z,28.57
2019-04-14T17:16:14.810Z,22.80
2019-04-14T17:21:37.699Z,28.73
2019-04-14T17:27:03.828Z,24.20
2019-04-14T17:32:39.944Z,23.00
2019-04-14T17:38:00.166Z,21.23
2019-04-14T17:43:20.288Z,23.47
2019-04-14T17:48:52.512Z,22.20
2019-04-14T17:54:29.751Z,21.97
2019-04-14T17:59:49.353Z,27.62
2019-04-14T18:05:09.602Z,21.90
2019-04-14T18:10:29.868Z,21.80
2019-04-14T18:15:58.968Z,19.97
2019-04-14T18:21:17.848Z,20.77
2019-04-14T18:26:36.578Z,19.17
2019-04-14T18:32:12.644Z,20.97
2019-04-14T18:37:47.785Z,24.23
2019-04-14T18:43:10.949Z,22.27
2019-04-14T18:48:40.415Z,23.40
2019-04-14T18:54:06.742Z,21.90
2019-04-14T18:59:33.091Z,22.20
2019-04-14T19:04:51.743Z,21.53
2019-04-14T19:10:10.494Z,22.30
2019-04-14T19:15:33.521Z,21.30
2019-04-14T19:20:53.817Z,18.43
2019-04-14T19:26:12.434Z,21.57
2019-04-14T19:31:31.083Z,21.93
2019-04-14T19:36:49.890Z,14.77
2019-04-14T19:42:08.464Z,18.67
2019-04-14T19:47:27.124Z,22.03
2019-04-14T19:52:45.750Z,19.30
2019-04-14T19:58:04.369Z,16.87
2019-04-14T20:03:22.990Z,17.80
2019-04-14T20:08:41.613Z,17.07
2019-04-14T20:14:00.234Z,18.97
2019-04-14T20:19:23.680Z,17.07
2019-04-14T20:24:52.784Z,17.97
2019-04-14T20:30:22.114Z,19.05
2019-04-14T20:35:40.769Z,21.57
2019-04-14T20:41:00.356Z,17.43
2019-04-14T20:46:19.029Z,14.50
2019-04-14T20:51:37.831Z,17.30
2019-04-14T20:56:56.772Z,18.93
2019-04-14T21:02:29.095Z,16.63
2019-04-14T21:07:49.199Z,18.55
2019-04-14T21:13:24.100Z,16.43
2019-04-14T21:18:53.353Z,18.23
2019-04-14T21:24:13.496Z,18.47
2019-04-14T21:29:42.442Z,17.37
2019-04-14T21:35:14.456Z,17.43
2019-04-14T21:40:40.601Z,17.20
2019-04-14T21:45:59.292Z,20.63
2019-04-14T21:51:17.770Z,18.20
2019-04-14T21:56:36.834Z,18.67
2019-04-14T22:02:13.323Z,20.13
2019-04-14T22:07:36.554Z,16.77
2019-04-14T22:12:55.095Z,19.17
2019-04-14T22:18:14.146Z,22.67
2019-04-14T22:23:32.696Z,20.43
2019-04-14T22:28:51.248Z,20.67
2019-04-14T22:34:09.929Z,19.20
2019-04-14T22:39:28.419Z,21.53
2019-04-14T22:44:46.970Z,19.90
2019-04-14T22:50:06.179Z,19.40
2019-04-14T22:55:24.721Z,17.13
2019-04-14T23:00:44.980Z,19.93
2019-04-14T23:06:05.252Z,19.07
2019-04-14T23:11:34.317Z,19.67
2019-04-14T23:17:00.467Z,20.23
2019-04-14T23:22:29.629Z,18.57
2019-04-14T23:27:48.251Z,17.17
2019-04-14T23:33:06.927Z,17.67
2019-04-14T23:38:25.479Z,20.80
2019-04-14T23:43:44.053Z,20.50
2019-04-14T23:49:02.610Z,21.30
2019-04-14T23:54:21.155Z,18.73
2019-04-14T23:59:39.704Z,20.40
